首页
METAR-TAF:

METAR-TAF

机场 :

Uden, 荷兰

纬度: 51-39N, 经度: 005-42E, 海拔: 22米

当前天气观测

该预报发布于18分钟前的06:25 UTC
风速8节,风向西转西南
温度 5°C
湿度 93%
气压 1014 hPa
能见度10公里或以上
少量云层高于1500英尺, 积雨云.
散云层高于1900英尺
阴天层高于2600英尺
小毛毛雨

METAR: EHVK 190625Z AUTO 24008KT 9999 -DZ FEW015CB SCT019 OVC026 05/04 Q1014 WHT

时间: 07:43 (06:43 UTC)

预报

该预报发布于59分钟前的05:44 UTC
预报有效从19日的 06点(UTC)到 19日的 18点(UTC)
风速6节,风向西转西南
能见度10公里或以上
散云层高于2000英尺
多云层高于3000英尺
短暂存在
从 19日的 06点(UTC)到 19日的 09点(UTC)
能見度: 4500
少量云层高于1200英尺
散云层高于1500英尺, 积雨云.
阴天层高于2000英尺
阵雨
几率 40% :
短暂存在
从 19日的 09点(UTC)到 19日的 13点(UTC)
散云层高于2000英尺, 积雨云.
成为
从 19日的 15点(UTC)到 19日的 18点(UTC)
风速3节,风向多变

TAF: EHVK 190544Z 1906/1918 25006KT 9999 SCT020 BKN030 TEMPO 1906/1909 4500 SHRA FEW012 SCT015CB OVC020 PROB40 TEMPO 1909/1913 SCT020CB BECMG 1915/1918 VRB03KT

超过4000个机场的气象观测和天气预报(METAR&TAF报告)。

可查询的气象台以黄色和红色小点在地图上表示。

将鼠标移到小点上方,可查看气象台名称。

然后点击查看天气观测和预报。

如需切换地图:点击带黑十字的绿色按钮放大地图;点击带横线的绿色按钮缩小地图;或者点击绿色箭头查看邻近地区的地图。


METAR-TAF: